sensor_id;sensor_type;location;lat;lon;timestamp;P1;durP1;ratioP1;P2;durP2;ratioP2
4519;SDS011;2272;49.226;8.108;2024-03-17T00:00:23;2.67;;;2.47;;
4519;SDS011;2272;49.226;8.108;2024-03-17T00:02:50;3.17;;;2.90;;
4519;SDS011;2272;49.226;8.108;2024-03-17T00:05:17;3.00;;;2.80;;
4519;SDS011;2272;49.226;8.108;2024-03-17T00:07:44;2.80;;;2.70;;
4519;SDS011;2272;49.226;8.108;2024-03-17T00:10:10;6.70;;;3.20;;
4519;SDS011;2272;49.226;8.108;2024-03-17T00:12:37;2.30;;;2.20;;
4519;SDS011;2272;49.226;8.108;2024-03-17T00:15:03;2.67;;;2.50;;
4519;SDS011;2272;49.226;8.108;2024-03-17T00:17:31;2.50;;;2.30;;
4519;SDS011;2272;49.226;8.108;2024-03-17T00:19:59;2.67;;;2.50;;
4519;SDS011;2272;49.226;8.108;2024-03-17T00:22:28;3.00;;;2.27;;
4519;SDS011;2272;49.226;8.108;2024-03-17T00:24:53;2.37;;;2.27;;
4519;SDS011;2272;49.226;8.108;2024-03-17T00:27:20;2.10;;;2.00;;
4519;SDS011;2272;49.226;8.108;2024-03-17T00:29:46;2.40;;;2.20;;
4519;SDS011;2272;49.226;8.108;2024-03-17T00:32:12;2.27;;;2.03;;
4519;SDS011;2272;49.226;8.108;2024-03-17T00:34:39;3.50;;;2.70;;
4519;SDS011;2272;49.226;8.108;2024-03-17T00:37:06;2.90;;;2.80;;
4519;SDS011;2272;49.226;8.108;2024-03-17T00:39:33;2.80;;;2.60;;
4519;SDS011;2272;49.226;8.108;2024-03-17T00:41:59;2.73;;;2.43;;
4519;SDS011;2272;49.226;8.108;2024-03-17T00:44:25;3.13;;;2.93;;
4519;SDS011;2272;49.226;8.108;2024-03-17T00:46:52;3.37;;;3.17;;
4519;SDS011;2272;49.226;8.108;2024-03-17T00:49:17;2.80;;;2.70;;
4519;SDS011;2272;49.226;8.108;2024-03-17T00:51:44;2.83;;;2.63;;
4519;SDS011;2272;49.226;8.108;2024-03-17T00:54:12;3.10;;;2.90;;
4519;SDS011;2272;49.226;8.108;2024-03-17T00:56:40;3.00;;;2.70;;
4519;SDS011;2272;49.226;8.108;2024-03-17T00:59:06;3.10;;;2.90;;
4519;SDS011;2272;49.226;8.108;2024-03-17T01:01:33;6.50;;;3.07;;
4519;SDS011;2272;49.226;8.108;2024-03-17T01:03:58;2.43;;;2.23;;
4519;SDS011;2272;49.226;8.108;2024-03-17T01:06:25;3.33;;;2.30;;
4519;SDS011;2272;49.226;8.108;2024-03-17T01:08:51;2.77;;;2.67;;
4519;SDS011;2272;49.226;8.108;2024-03-17T01:11:17;2.60;;;2.40;;
4519;SDS011;2272;49.226;8.108;2024-03-17T01:13:45;2.13;;;2.03;;
4519;SDS011;2272;49.226;8.108;2024-03-17T01:16:12;2.53;;;2.43;;
4519;SDS011;2272;49.226;8.108;2024-03-17T01:18:38;2.97;;;2.60;;
4519;SDS011;2272;49.226;8.108;2024-03-17T01:21:04;1.93;;;1.83;;
4519;SDS011;2272;49.226;8.108;2024-03-17T01:23:30;2.27;;;2.17;;
4519;SDS011;2272;49.226;8.108;2024-03-17T01:25:57;2.53;;;2.37;;
4519;SDS011;2272;49.226;8.108;2024-03-17T01:28:24;1.83;;;1.73;;
4519;SDS011;2272;49.226;8.108;2024-03-17T01:30:52;2.10;;;2.00;;
4519;SDS011;2272;49.226;8.108;2024-03-17T01:33:19;3.53;;;2.23;;
4519;SDS011;2272;49.226;8.108;2024-03-17T01:35:45;8.23;;;2.10;;
4519;SDS011;2272;49.226;8.108;2024-03-17T01:38:12;2.53;;;2.40;;
4519;SDS011;2272;49.226;8.108;2024-03-17T01:40:38;2.03;;;1.93;;
4519;SDS011;2272;49.226;8.108;2024-03-17T01:43:04;2.50;;;2.30;;
4519;SDS011;2272;49.226;8.108;2024-03-17T01:45:34;2.07;;;1.97;;
4519;SDS011;2272;49.226;8.108;2024-03-17T01:48:03;3.77;;;1.87;;
4519;SDS011;2272;49.226;8.108;2024-03-17T01:50:34;3.80;;;2.17;;
4519;SDS011;2272;49.226;8.108;2024-03-17T01:53:03;3.87;;;2.60;;
4519;SDS011;2272;49.226;8.108;2024-03-17T01:55:30;3.33;;;2.60;;
4519;SDS011;2272;49.226;8.108;2024-03-17T01:57:58;1.73;;;1.63;;
4519;SDS011;2272;49.226;8.108;2024-03-17T02:00:25;2.27;;;2.07;;
4519;SDS011;2272;49.226;8.108;2024-03-17T02:02:53;2.00;;;1.73;;
4519;SDS011;2272;49.226;8.108;2024-03-17T02:05:20;1.90;;;1.80;;
4519;SDS011;2272;49.226;8.108;2024-03-17T02:07:48;1.70;;;1.60;;
4519;SDS011;2272;49.226;8.108;2024-03-17T02:10:15;3.03;;;1.90;;
4519;SDS011;2272;49.226;8.108;2024-03-17T02:12:40;2.10;;;2.00;;
4519;SDS011;2272;49.226;8.108;2024-03-17T02:15:07;5.03;;;2.40;;
4519;SDS011;2272;49.226;8.108;2024-03-17T02:17:33;1.93;;;1.90;;
4519;SDS011;2272;49.226;8.108;2024-03-17T02:20:00;2.77;;;2.57;;
4519;SDS011;2272;49.226;8.108;2024-03-17T02:22:27;6.30;;;2.37;;
4519;SDS011;2272;49.226;8.108;2024-03-17T02:24:54;2.50;;;1.93;;
4519;SDS011;2272;49.226;8.108;2024-03-17T02:27:20;2.70;;;2.23;;
4519;SDS011;2272;49.226;8.108;2024-03-17T02:29:46;2.40;;;2.20;;
4519;SDS011;2272;49.226;8.108;2024-03-17T02:32:13;2.50;;;2.30;;
4519;SDS011;2272;49.226;8.108;2024-03-17T02:34:39;2.23;;;2.13;;
4519;SDS011;2272;49.226;8.108;2024-03-17T02:37:06;2.13;;;2.00;;
4519;SDS011;2272;49.226;8.108;2024-03-17T02:39:33;2.13;;;1.80;;
4519;SDS011;2272;49.226;8.108;2024-03-17T02:42:00;2.00;;;1.90;;
4519;SDS011;2272;49.226;8.108;2024-03-17T02:44:27;2.00;;;1.77;;
4519;SDS011;2272;49.226;8.108;2024-03-17T02:46:56;2.10;;;2.00;;
4519;SDS011;2272;49.226;8.108;2024-03-17T02:49:22;1.77;;;1.77;;
4519;SDS011;2272;49.226;8.108;2024-03-17T02:51:49;2.50;;;2.00;;
4519;SDS011;2272;49.226;8.108;2024-03-17T02:54:16;1.97;;;1.77;;
4519;SDS011;2272;49.226;8.108;2024-03-17T02:56:44;1.90;;;1.80;;
4519;SDS011;2272;49.226;8.108;2024-03-17T02:59:11;4.53;;;2.90;;
4519;SDS011;2272;49.226;8.108;2024-03-17T03:01:38;2.80;;;1.80;;
4519;SDS011;2272;49.226;8.108;2024-03-17T03:04:05;4.83;;;2.40;;
4519;SDS011;2272;49.226;8.108;2024-03-17T03:06:32;2.13;;;2.00;;
4519;SDS011;2272;49.226;8.108;2024-03-17T03:09:00;2.33;;;2.13;;
4519;SDS011;2272;49.226;8.108;2024-03-17T03:11:27;2.00;;;2.00;;
4519;SDS011;2272;49.226;8.108;2024-03-17T03:13:55;3.80;;;2.67;;
4519;SDS011;2272;49.226;8.108;2024-03-17T03:16:21;11.30;;;2.07;;
4519;SDS011;2272;49.226;8.108;2024-03-17T03:18:50;2.20;;;2.10;;
4519;SDS011;2272;49.226;8.108;2024-03-17T03:21:17;2.50;;;2.40;;
4519;SDS011;2272;49.226;8.108;2024-03-17T03:23:44;4.13;;;3.43;;
4519;SDS011;2272;49.226;8.108;2024-03-17T03:26:11;2.83;;;2.63;;
4519;SDS011;2272;49.226;8.108;2024-03-17T03:28:38;2.90;;;2.60;;
4519;SDS011;2272;49.226;8.108;2024-03-17T03:31:07;2.70;;;2.60;;
4519;SDS011;2272;49.226;8.108;2024-03-17T03:33:38;3.67;;;2.50;;
4519;SDS011;2272;49.226;8.108;2024-03-17T03:36:07;2.37;;;2.17;;
4519;SDS011;2272;49.226;8.108;2024-03-17T03:38:34;2.40;;;2.30;;
4519;SDS011;2272;49.226;8.108;2024-03-17T03:41:05;2.83;;;2.63;;
4519;SDS011;2272;49.226;8.108;2024-03-17T03:43:33;5.40;;;3.03;;
4519;SDS011;2272;49.226;8.108;2024-03-17T03:46:00;3.03;;;2.57;;
4519;SDS011;2272;49.226;8.108;2024-03-17T03:48:29;4.07;;;2.43;;
4519;SDS011;2272;49.226;8.108;2024-03-17T03:50:55;2.20;;;2.10;;
4519;SDS011;2272;49.226;8.108;2024-03-17T03:53:21;2.67;;;2.43;;
4519;SDS011;2272;49.226;8.108;2024-03-17T03:55:47;2.93;;;2.50;;
4519;SDS011;2272;49.226;8.108;2024-03-17T03:58:14;3.50;;;2.77;;
4519;SDS011;2272;49.226;8.108;2024-03-17T04:00:41;2.03;;;1.97;;
4519;SDS011;2272;49.226;8.108;2024-03-17T04:03:08;3.40;;;3.03;;
4519;SDS011;2272;49.226;8.108;2024-03-17T04:05:36;1.87;;;1.77;;
4519;SDS011;2272;49.226;8.108;2024-03-17T04:08:04;3.53;;;3.23;;
4519;SDS011;2272;49.226;8.108;2024-03-17T04:10:31;2.83;;;2.63;;
4519;SDS011;2272;49.226;8.108;2024-03-17T04:12:57;2.90;;;2.67;;
4519;SDS011;2272;49.226;8.108;2024-03-17T04:15:24;2.70;;;2.50;;
4519;SDS011;2272;49.226;8.108;2024-03-17T04:17:51;3.20;;;2.50;;
4519;SDS011;2272;49.226;8.108;2024-03-17T04:20:18;11.83;;;3.07;;
4519;SDS011;2272;49.226;8.108;2024-03-17T04:22:46;3.40;;;2.60;;
4519;SDS011;2272;49.226;8.108;2024-03-17T04:25:13;3.10;;;2.90;;
4519;SDS011;2272;49.226;8.108;2024-03-17T04:27:40;3.13;;;2.83;;
4519;SDS011;2272;49.226;8.108;2024-03-17T04:30:07;2.97;;;2.80;;
4519;SDS011;2272;49.226;8.108;2024-03-17T04:32:36;3.30;;;3.00;;
4519;SDS011;2272;49.226;8.108;2024-03-17T04:35:04;3.40;;;3.20;;
4519;SDS011;2272;49.226;8.108;2024-03-17T04:37:32;4.20;;;2.87;;
4519;SDS011;2272;49.226;8.108;2024-03-17T04:40:05;3.10;;;2.93;;
4519;SDS011;2272;49.226;8.108;2024-03-17T04:42:35;3.07;;;2.97;;
4519;SDS011;2272;49.226;8.108;2024-03-17T04:45:04;2.57;;;2.37;;
4519;SDS011;2272;49.226;8.108;2024-03-17T04:47:32;2.97;;;2.80;;
4519;SDS011;2272;49.226;8.108;2024-03-17T04:49:58;4.70;;;2.63;;
4519;SDS011;2272;49.226;8.108;2024-03-17T04:52:25;3.07;;;2.80;;
4519;SDS011;2272;49.226;8.108;2024-03-17T04:54:52;2.80;;;2.60;;
4519;SDS011;2272;49.226;8.108;2024-03-17T04:57:20;5.23;;;3.07;;
4519;SDS011;2272;49.226;8.108;2024-03-17T04:59:46;2.13;;;2.03;;
4519;SDS011;2272;49.226;8.108;2024-03-17T05:02:13;2.90;;;2.70;;
4519;SDS011;2272;49.226;8.108;2024-03-17T05:04:39;3.10;;;2.77;;
4519;SDS011;2272;49.226;8.108;2024-03-17T05:07:07;2.57;;;2.47;;
4519;SDS011;2272;49.226;8.108;2024-03-17T05:09:34;3.40;;;2.20;;
4519;SDS011;2272;49.226;8.108;2024-03-17T05:12:00;6.27;;;3.20;;
4519;SDS011;2272;49.226;8.108;2024-03-17T05:14:28;3.40;;;3.17;;
4519;SDS011;2272;49.226;8.108;2024-03-17T05:16:55;2.73;;;2.53;;
4519;SDS011;2272;49.226;8.108;2024-03-17T05:19:22;2.27;;;2.17;;
4519;SDS011;2272;49.226;8.108;2024-03-17T05:21:49;2.23;;;2.13;;
4519;SDS011;2272;49.226;8.108;2024-03-17T05:24:16;2.00;;;1.90;;
4519;SDS011;2272;49.226;8.108;2024-03-17T05:26:44;2.73;;;2.63;;
4519;SDS011;2272;49.226;8.108;2024-03-17T05:29:11;4.73;;;2.63;;
4519;SDS011;2272;49.226;8.108;2024-03-17T05:31:39;2.30;;;2.20;;
4519;SDS011;2272;49.226;8.108;2024-03-17T05:34:08;2.80;;;2.70;;
4519;SDS011;2272;49.226;8.108;2024-03-17T05:36:35;2.90;;;2.70;;
4519;SDS011;2272;49.226;8.108;2024-03-17T05:39:02;12.23;;;5.63;;
4519;SDS011;2272;49.226;8.108;2024-03-17T05:41:28;4.57;;;4.10;;
4519;SDS011;2272;49.226;8.108;2024-03-17T05:43:55;4.07;;;3.77;;
4519;SDS011;2272;49.226;8.108;2024-03-17T05:46:23;4.00;;;3.63;;
4519;SDS011;2272;49.226;8.108;2024-03-17T05:48:52;3.90;;;3.60;;
4519;SDS011;2272;49.226;8.108;2024-03-17T05:51:18;3.60;;;3.00;;
4519;SDS011;2272;49.226;8.108;2024-03-17T05:53:45;3.80;;;3.50;;
4519;SDS011;2272;49.226;8.108;2024-03-17T05:56:12;2.70;;;2.47;;
4519;SDS011;2272;49.226;8.108;2024-03-17T05:58:40;2.93;;;2.77;;
4519;SDS011;2272;49.226;8.108;2024-03-17T06:01:07;4.10;;;3.23;;
4519;SDS011;2272;49.226;8.108;2024-03-17T06:03:36;2.93;;;2.73;;
4519;SDS011;2272;49.226;8.108;2024-03-17T06:06:05;5.73;;;3.23;;
4519;SDS011;2272;49.226;8.108;2024-03-17T06:08:34;2.97;;;2.70;;
4519;SDS011;2272;49.226;8.108;2024-03-17T06:11:01;2.77;;;2.57;;
4519;SDS011;2272;49.226;8.108;2024-03-17T06:13:29;3.00;;;2.80;;
4519;SDS011;2272;49.226;8.108;2024-03-17T06:15:56;5.70;;;3.13;;
4519;SDS011;2272;49.226;8.108;2024-03-17T06:18:26;2.47;;;2.37;;
4519;SDS011;2272;49.226;8.108;2024-03-17T06:20:54;2.93;;;2.73;;
4519;SDS011;2272;49.226;8.108;2024-03-17T06:23:30;5.73;;;2.70;;
4519;SDS011;2272;49.226;8.108;2024-03-17T06:26:01;2.60;;;2.40;;
4519;SDS011;2272;49.226;8.108;2024-03-17T06:28:31;3.93;;;3.20;;
4519;SDS011;2272;49.226;8.108;2024-03-17T06:30:58;5.07;;;3.43;;
4519;SDS011;2272;49.226;8.108;2024-03-17T06:33:26;5.73;;;3.10;;
4519;SDS011;2272;49.226;8.108;2024-03-17T06:35:54;2.80;;;2.63;;
4519;SDS011;2272;49.226;8.108;2024-03-17T06:38:21;3.40;;;3.10;;
4519;SDS011;2272;49.226;8.108;2024-03-17T06:40:49;3.77;;;3.53;;
4519;SDS011;2272;49.226;8.108;2024-03-17T06:43:16;8.23;;;4.13;;
4519;SDS011;2272;49.226;8.108;2024-03-17T06:45:43;3.77;;;3.47;;
4519;SDS011;2272;49.226;8.108;2024-03-17T06:48:10;4.37;;;3.97;;
4519;SDS011;2272;49.226;8.108;2024-03-17T06:50:37;3.80;;;3.43;;
4519;SDS011;2272;49.226;8.108;2024-03-17T06:53:05;3.77;;;3.57;;
4519;SDS011;2272;49.226;8.108;2024-03-17T06:55:33;4.93;;;3.27;;
4519;SDS011;2272;49.226;8.108;2024-03-17T06:58:01;3.77;;;3.40;;
4519;SDS011;2272;49.226;8.108;2024-03-17T07:00:29;5.37;;;3.30;;
4519;SDS011;2272;49.226;8.108;2024-03-17T07:02:55;4.30;;;3.90;;
4519;SDS011;2272;49.226;8.108;2024-03-17T07:05:22;4.83;;;4.03;;
4519;SDS011;2272;49.226;8.108;2024-03-17T07:07:49;4.47;;;4.13;;
4519;SDS011;2272;49.226;8.108;2024-03-17T07:10:16;6.37;;;3.73;;
4519;SDS011;2272;49.226;8.108;2024-03-17T07:12:43;4.90;;;3.80;;
4519;SDS011;2272;49.226;8.108;2024-03-17T07:15:11;5.60;;;5.10;;
4519;SDS011;2272;49.226;8.108;2024-03-17T07:17:38;5.37;;;4.27;;
4519;SDS011;2272;49.226;8.108;2024-03-17T07:20:06;4.53;;;4.13;;
4519;SDS011;2272;49.226;8.108;2024-03-17T07:22:34;4.77;;;3.47;;
4519;SDS011;2272;49.226;8.108;2024-03-17T07:25:01;13.60;;;4.10;;
4519;SDS011;2272;49.226;8.108;2024-03-17T07:27:28;4.00;;;3.70;;
4519;SDS011;2272;49.226;8.108;2024-03-17T07:29:55;4.87;;;4.37;;
4519;SDS011;2272;49.226;8.108;2024-03-17T07:32:23;3.50;;;3.30;;
4519;SDS011;2272;49.226;8.108;2024-03-17T07:34:49;4.17;;;3.90;;
4519;SDS011;2272;49.226;8.108;2024-03-17T07:37:16;4.07;;;3.77;;
4519;SDS011;2272;49.226;8.108;2024-03-17T07:39:43;4.60;;;3.30;;
4519;SDS011;2272;49.226;8.108;2024-03-17T07:42:10;4.50;;;3.57;;
4519;SDS011;2272;49.226;8.108;2024-03-17T07:44:38;3.77;;;3.47;;
4519;SDS011;2272;49.226;8.108;2024-03-17T07:47:05;7.27;;;5.07;;
4519;SDS011;2272;49.226;8.108;2024-03-17T07:49:33;7.10;;;6.00;;
4519;SDS011;2272;49.226;8.108;2024-03-17T07:52:00;11.50;;;7.17;;
4519;SDS011;2272;49.226;8.108;2024-03-17T07:54:27;7.63;;;5.40;;
4519;SDS011;2272;49.226;8.108;2024-03-17T07:56:54;7.03;;;5.70;;
4519;SDS011;2272;49.226;8.108;2024-03-17T07:59:21;8.10;;;5.33;;
4519;SDS011;2272;49.226;8.108;2024-03-17T08:01:47;10.30;;;5.70;;
4519;SDS011;2272;49.226;8.108;2024-03-17T08:04:15;5.10;;;4.30;;
4519;SDS011;2272;49.226;8.108;2024-03-17T08:06:43;7.77;;;5.27;;
4519;SDS011;2272;49.226;8.108;2024-03-17T08:09:10;4.20;;;3.90;;
4519;SDS011;2272;49.226;8.108;2024-03-17T08:11:37;3.77;;;3.47;;
4519;SDS011;2272;49.226;8.108;2024-03-17T08:14:10;5.00;;;4.37;;
4519;SDS011;2272;49.226;8.108;2024-03-17T08:16:37;4.20;;;3.90;;
4519;SDS011;2272;49.226;8.108;2024-03-17T08:19:04;5.10;;;4.53;;
4519;SDS011;2272;49.226;8.108;2024-03-17T08:21:34;5.37;;;4.33;;
4519;SDS011;2272;49.226;8.108;2024-03-17T08:24:02;5.60;;;4.33;;
4519;SDS011;2272;49.226;8.108;2024-03-17T08:26:29;7.13;;;3.90;;
4519;SDS011;2272;49.226;8.108;2024-03-17T08:28:55;6.23;;;5.00;;
4519;SDS011;2272;49.226;8.108;2024-03-17T08:31:23;4.80;;;4.50;;
4519;SDS011;2272;49.226;8.108;2024-03-17T08:33:50;7.13;;;4.07;;
4519;SDS011;2272;49.226;8.108;2024-03-17T08:36:17;6.03;;;4.07;;
4519;SDS011;2272;49.226;8.108;2024-03-17T08:38:45;5.43;;;3.47;;
4519;SDS011;2272;49.226;8.108;2024-03-17T08:41:14;10.10;;;5.50;;
4519;SDS011;2272;49.226;8.108;2024-03-17T08:43:42;5.80;;;4.83;;
4519;SDS011;2272;49.226;8.108;2024-03-17T08:46:09;5.80;;;4.83;;
4519;SDS011;2272;49.226;8.108;2024-03-17T08:48:38;6.37;;;4.87;;
4519;SDS011;2272;49.226;8.108;2024-03-17T08:51:07;7.23;;;4.60;;
4519;SDS011;2272;49.226;8.108;2024-03-17T08:53:34;4.67;;;4.27;;
4519;SDS011;2272;49.226;8.108;2024-03-17T08:56:03;9.90;;;5.10;;
4519;SDS011;2272;49.226;8.108;2024-03-17T08:58:32;4.73;;;4.33;;
4519;SDS011;2272;49.226;8.108;2024-03-17T09:01:02;13.83;;;5.57;;
4519;SDS011;2272;49.226;8.108;2024-03-17T09:03:31;4.60;;;4.20;;
4519;SDS011;2272;49.226;8.108;2024-03-17T09:05:57;7.23;;;5.27;;
4519;SDS011;2272;49.226;8.108;2024-03-17T09:08:24;12.07;;;4.73;;
4519;SDS011;2272;49.226;8.108;2024-03-17T09:10:53;9.10;;;5.33;;
4519;SDS011;2272;49.226;8.108;2024-03-17T09:13:21;9.53;;;5.93;;
4519;SDS011;2272;49.226;8.108;2024-03-17T09:15:51;8.00;;;6.13;;
4519;SDS011;2272;49.226;8.108;2024-03-17T09:18:18;6.93;;;5.30;;
4519;SDS011;2272;49.226;8.108;2024-03-17T09:20:45;10.13;;;6.47;;
4519;SDS011;2272;49.226;8.108;2024-03-17T09:23:12;5.53;;;4.80;;
4519;SDS011;2272;49.226;8.108;2024-03-17T09:25:39;6.00;;;5.00;;
4519;SDS011;2272;49.226;8.108;2024-03-17T09:28:06;6.90;;;5.67;;
4519;SDS011;2272;49.226;8.108;2024-03-17T09:30:33;6.63;;;5.47;;
4519;SDS011;2272;49.226;8.108;2024-03-17T09:33:01;10.10;;;4.73;;
4519;SDS011;2272;49.226;8.108;2024-03-17T09:35:29;4.87;;;4.47;;
4519;SDS011;2272;49.226;8.108;2024-03-17T09:37:56;6.93;;;5.80;;
4519;SDS011;2272;49.226;8.108;2024-03-17T09:40:23;6.80;;;5.47;;
4519;SDS011;2272;49.226;8.108;2024-03-17T09:42:50;7.13;;;5.57;;
4519;SDS011;2272;49.226;8.108;2024-03-17T09:45:16;6.30;;;5.70;;
4519;SDS011;2272;49.226;8.108;2024-03-17T09:47:44;7.93;;;4.60;;
4519;SDS011;2272;49.226;8.108;2024-03-17T09:50:13;6.67;;;5.87;;
4519;SDS011;2272;49.226;8.108;2024-03-17T09:52:41;4.50;;;4.10;;
4519;SDS011;2272;49.226;8.108;2024-03-17T09:55:13;6.20;;;5.60;;
4519;SDS011;2272;49.226;8.108;2024-03-17T09:57:42;6.47;;;5.87;;
4519;SDS011;2272;49.226;8.108;2024-03-17T10:00:09;4.83;;;4.43;;
4519;SDS011;2272;49.226;8.108;2024-03-17T10:02:41;5.87;;;5.27;;
4519;SDS011;2272;49.226;8.108;2024-03-17T10:05:19;6.67;;;5.27;;
4519;SDS011;2272;49.226;8.108;2024-03-17T10:07:46;5.90;;;4.73;;
4519;SDS011;2272;49.226;8.108;2024-03-17T10:10:14;4.90;;;4.40;;
4519;SDS011;2272;49.226;8.108;2024-03-17T10:12:42;7.07;;;4.77;;
4519;SDS011;2272;49.226;8.108;2024-03-17T10:15:10;8.50;;;6.20;;
4519;SDS011;2272;49.226;8.108;2024-03-17T10:17:38;9.40;;;5.80;;
4519;SDS011;2272;49.226;8.108;2024-03-17T10:20:11;6.40;;;4.90;;
4519;SDS011;2272;49.226;8.108;2024-03-17T10:22:49;7.00;;;5.60;;
4519;SDS011;2272;49.226;8.108;2024-03-17T10:25:24;6.37;;;5.77;;
4519;SDS011;2272;49.226;8.108;2024-03-17T10:27:51;5.27;;;4.87;;
4519;SDS011;2272;49.226;8.108;2024-03-17T10:30:18;5.23;;;4.70;;
4519;SDS011;2272;49.226;8.108;2024-03-17T10:32:48;5.13;;;4.70;;
4519;SDS011;2272;49.226;8.108;2024-03-17T10:35:25;7.70;;;5.73;;
4519;SDS011;2272;49.226;8.108;2024-03-17T10:37:55;9.10;;;4.70;;
4519;SDS011;2272;49.226;8.108;2024-03-17T10:40:24;5.23;;;4.60;;
4519;SDS011;2272;49.226;8.108;2024-03-17T10:42:52;5.53;;;5.03;;
4519;SDS011;2272;49.226;8.108;2024-03-17T10:45:19;6.40;;;5.27;;
4519;SDS011;2272;49.226;8.108;2024-03-17T10:47:47;7.77;;;4.80;;
4519;SDS011;2272;49.226;8.108;2024-03-17T10:50:17;5.00;;;4.60;;
4519;SDS011;2272;49.226;8.108;2024-03-17T10:52:45;5.13;;;4.70;;
4519;SDS011;2272;49.226;8.108;2024-03-17T10:55:20;6.93;;;5.70;;
4519;SDS011;2272;49.226;8.108;2024-03-17T10:57:48;6.77;;;6.07;;
4519;SDS011;2272;49.226;8.108;2024-03-17T11:00:17;4.30;;;3.77;;
4519;SDS011;2272;49.226;8.108;2024-03-17T11:02:45;5.53;;;5.03;;
4519;SDS011;2272;49.226;8.108;2024-03-17T11:05:14;5.90;;;5.30;;
4519;SDS011;2272;49.226;8.108;2024-03-17T11:07:41;4.83;;;4.43;;
4519;SDS011;2272;49.226;8.108;2024-03-17T11:10:11;7.20;;;4.80;;
4519;SDS011;2272;49.226;8.108;2024-03-17T11:12:44;4.20;;;3.90;;
4519;SDS011;2272;49.226;8.108;2024-03-17T11:20:56;7.17;;;4.90;;
4519;SDS011;2272;49.226;8.108;2024-03-17T11:23:27;5.53;;;5.03;;
4519;SDS011;2272;49.226;8.108;2024-03-17T11:25:56;7.83;;;5.33;;
4519;SDS011;2272;49.226;8.108;2024-03-17T11:34:06;6.87;;;5.93;;
4519;SDS011;2272;49.226;8.108;2024-03-17T11:36:33;9.90;;;6.03;;
4519;SDS011;2272;49.226;8.108;2024-03-17T11:39:03;6.50;;;5.30;;
4519;SDS011;2272;49.226;8.108;2024-03-17T11:41:36;10.03;;;5.40;;
4519;SDS011;2272;49.226;8.108;2024-03-17T11:46:59;7.33;;;4.90;;
4519;SDS011;2272;49.226;8.108;2024-03-17T11:49:26;4.93;;;4.37;;
4519;SDS011;2272;49.226;8.108;2024-03-17T11:51:54;5.83;;;4.77;;
4519;SDS011;2272;49.226;8.108;2024-03-17T11:54:21;4.83;;;3.53;;
4519;SDS011;2272;49.226;8.108;2024-03-17T11:56:49;5.10;;;4.50;;
4519;SDS011;2272;49.226;8.108;2024-03-17T11:59:16;4.30;;;4.00;;
4519;SDS011;2272;49.226;8.108;2024-03-17T12:01:45;9.30;;;5.33;;
4519;SDS011;2272;49.226;8.108;2024-03-17T12:04:12;3.50;;;3.20;;
4519;SDS011;2272;49.226;8.108;2024-03-17T12:06:43;5.23;;;4.37;;
4519;SDS011;2272;49.226;8.108;2024-03-17T12:09:17;4.63;;;4.27;;
4519;SDS011;2272;49.226;8.108;2024-03-17T12:11:46;6.47;;;5.40;;
4519;SDS011;2272;49.226;8.108;2024-03-17T12:14:16;5.53;;;5.03;;
4519;SDS011;2272;49.226;8.108;2024-03-17T12:16:50;5.10;;;4.43;;
4519;SDS011;2272;49.226;8.108;2024-03-17T12:19:17;7.60;;;4.87;;
4519;SDS011;2272;49.226;8.108;2024-03-17T12:21:44;3.10;;;2.93;;
4519;SDS011;2272;49.226;8.108;2024-03-17T12:24:15;4.00;;;3.50;;
4519;SDS011;2272;49.226;8.108;2024-03-17T12:26:43;5.43;;;3.73;;
4519;SDS011;2272;49.226;8.108;2024-03-17T12:29:27;5.77;;;4.47;;
4519;SDS011;2272;49.226;8.108;2024-03-17T12:31:57;4.87;;;4.43;;
4519;SDS011;2272;49.226;8.108;2024-03-17T12:34:26;4.87;;;3.87;;
4519;SDS011;2272;49.226;8.108;2024-03-17T12:36:54;3.93;;;3.63;;
4519;SDS011;2272;49.226;8.108;2024-03-17T12:39:21;5.17;;;4.70;;
4519;SDS011;2272;49.226;8.108;2024-03-17T12:42:00;6.03;;;4.20;;
4519;SDS011;2272;49.226;8.108;2024-03-17T12:44:31;6.07;;;4.80;;
4519;SDS011;2272;49.226;8.108;2024-03-17T12:47:00;4.67;;;4.17;;
4519;SDS011;2272;49.226;8.108;2024-03-17T12:49:28;4.47;;;4.07;;
4519;SDS011;2272;49.226;8.108;2024-03-17T12:51:54;4.00;;;3.60;;
4519;SDS011;2272;49.226;8.108;2024-03-17T12:54:22;6.10;;;4.27;;
4519;SDS011;2272;49.226;8.108;2024-03-17T12:56:50;4.73;;;4.20;;
4519;SDS011;2272;49.226;8.108;2024-03-17T12:59:41;5.60;;;4.53;;
4519;SDS011;2272;49.226;8.108;2024-03-17T13:02:42;3.87;;;3.57;;
4519;SDS011;2272;49.226;8.108;2024-03-17T13:05:16;5.43;;;3.97;;
4519;SDS011;2272;49.226;8.108;2024-03-17T13:07:44;5.80;;;5.23;;
4519;SDS011;2272;49.226;8.108;2024-03-17T13:10:12;8.10;;;4.23;;
4519;SDS011;2272;49.226;8.108;2024-03-17T13:12:39;3.80;;;3.50;;
4519;SDS011;2272;49.226;8.108;2024-03-17T13:15:06;5.47;;;3.70;;
4519;SDS011;2272;49.226;8.108;2024-03-17T13:17:35;4.33;;;4.03;;
4519;SDS011;2272;49.226;8.108;2024-03-17T13:20:05;8.80;;;5.07;;
4519;SDS011;2272;49.226;8.108;2024-03-17T13:22:36;5.47;;;4.97;;
4519;SDS011;2272;49.226;8.108;2024-03-17T13:25:05;5.50;;;4.70;;
4519;SDS011;2272;49.226;8.108;2024-03-17T13:27:34;5.00;;;4.50;;
4519;SDS011;2272;49.226;8.108;2024-03-17T13:30:01;5.20;;;4.80;;
4519;SDS011;2272;49.226;8.108;2024-03-17T13:32:28;5.57;;;4.93;;
4519;SDS011;2272;49.226;8.108;2024-03-17T13:34:55;14.00;;;5.20;;
4519;SDS011;2272;49.226;8.108;2024-03-17T13:37:23;7.93;;;5.70;;
4519;SDS011;2272;49.226;8.108;2024-03-17T13:39:49;8.10;;;4.80;;
4519;SDS011;2272;49.226;8.108;2024-03-17T13:42:16;5.53;;;5.07;;
4519;SDS011;2272;49.226;8.108;2024-03-17T13:44:43;6.10;;;5.50;;
4519;SDS011;2272;49.226;8.108;2024-03-17T13:47:11;5.40;;;4.90;;
4519;SDS011;2272;49.226;8.108;2024-03-17T13:49:38;6.70;;;5.43;;
4519;SDS011;2272;49.226;8.108;2024-03-17T13:52:05;4.20;;;3.63;;
4519;SDS011;2272;49.226;8.108;2024-03-17T13:54:33;7.03;;;5.63;;
4519;SDS011;2272;49.226;8.108;2024-03-17T13:56:59;4.90;;;4.40;;
4519;SDS011;2272;49.226;8.108;2024-03-17T13:59:27;5.30;;;4.80;;
4519;SDS011;2272;49.226;8.108;2024-03-17T14:01:54;8.27;;;4.93;;
4519;SDS011;2272;49.226;8.108;2024-03-17T14:04:21;4.63;;;4.27;;
4519;SDS011;2272;49.226;8.108;2024-03-17T14:06:47;5.27;;;2.80;;
4519;SDS011;2272;49.226;8.108;2024-03-17T14:09:15;3.90;;;3.57;;
4519;SDS011;2272;49.226;8.108;2024-03-17T14:11:45;6.13;;;3.67;;
4519;SDS011;2272;49.226;8.108;2024-03-17T14:14:12;5.40;;;3.63;;
4519;SDS011;2272;49.226;8.108;2024-03-17T14:16:39;6.00;;;4.77;;
4519;SDS011;2272;49.226;8.108;2024-03-17T14:19:07;3.07;;;2.87;;
4519;SDS011;2272;49.226;8.108;2024-03-17T14:21:34;4.97;;;4.37;;
4519;SDS011;2272;49.226;8.108;2024-03-17T14:24:01;3.40;;;3.07;;
4519;SDS011;2272;49.226;8.108;2024-03-17T14:26:32;4.53;;;3.37;;
4519;SDS011;2272;49.226;8.108;2024-03-17T14:29:00;4.03;;;3.63;;
4519;SDS011;2272;49.226;8.108;2024-03-17T14:31:29;3.67;;;3.37;;
4519;SDS011;2272;49.226;8.108;2024-03-17T14:33:57;2.77;;;2.57;;
4519;SDS011;2272;49.226;8.108;2024-03-17T14:36:23;2.60;;;2.50;;
4519;SDS011;2272;49.226;8.108;2024-03-17T14:38:52;3.20;;;2.87;;
4519;SDS011;2272;49.226;8.108;2024-03-17T14:41:19;3.43;;;2.53;;
4519;SDS011;2272;49.226;8.108;2024-03-17T14:43:45;2.57;;;2.47;;
4519;SDS011;2272;49.226;8.108;2024-03-17T14:46:13;2.83;;;2.63;;
4519;SDS011;2272;49.226;8.108;2024-03-17T14:48:42;5.67;;;3.30;;
4519;SDS011;2272;49.226;8.108;2024-03-17T14:51:09;2.83;;;2.63;;
4519;SDS011;2272;49.226;8.108;2024-03-17T14:53:36;3.60;;;2.17;;
4519;SDS011;2272;49.226;8.108;2024-03-17T14:56:07;2.87;;;2.43;;
4519;SDS011;2272;49.226;8.108;2024-03-17T14:58:34;12.40;;;2.47;;
4519;SDS011;2272;49.226;8.108;2024-03-17T15:01:01;7.67;;;2.37;;
4519;SDS011;2272;49.226;8.108;2024-03-17T15:03:29;4.27;;;2.50;;
4519;SDS011;2272;49.226;8.108;2024-03-17T15:05:56;3.13;;;1.37;;
4519;SDS011;2272;49.226;8.108;2024-03-17T15:08:23;2.20;;;1.70;;
4519;SDS011;2272;49.226;8.108;2024-03-17T15:10:50;1.57;;;1.47;;
4519;SDS011;2272;49.226;8.108;2024-03-17T15:13:19;2.17;;;1.50;;
4519;SDS011;2272;49.226;8.108;2024-03-17T15:15:46;1.90;;;1.60;;
4519;SDS011;2272;49.226;8.108;2024-03-17T15:18:13;1.50;;;1.40;;
4519;SDS011;2272;49.226;8.108;2024-03-17T15:20:42;2.83;;;2.50;;
4519;SDS011;2272;49.226;8.108;2024-03-17T15:23:09;1.90;;;1.80;;
4519;SDS011;2272;49.226;8.108;2024-03-17T15:25:35;2.00;;;1.90;;
4519;SDS011;2272;49.226;8.108;2024-03-17T15:28:02;2.23;;;2.13;;
4519;SDS011;2272;49.226;8.108;2024-03-17T15:30:29;3.30;;;3.00;;
4519;SDS011;2272;49.226;8.108;2024-03-17T15:32:56;6.67;;;2.90;;